createdAt,value
2023-02-05T00:01:42.819Z,-0.50
2023-02-05T00:18:53.794Z,-0.60
2023-02-05T00:21:22.260Z,-0.70
2023-02-05T00:31:17.607Z,-0.60
2023-02-05T00:36:13.089Z,-0.70
2023-02-05T01:08:10.528Z,-1.00
2023-02-05T01:13:05.863Z,-0.90
2023-02-05T01:45:19.996Z,-1.20
2023-02-05T01:57:37.525Z,-1.30
2023-02-05T02:00:06.646Z,-1.20
2023-02-05T02:02:36.462Z,-1.30
2023-02-05T02:05:12.037Z,-1.30
2023-02-05T02:12:37.063Z,-1.40
2023-02-05T02:15:09.102Z,-1.40
2023-02-05T02:17:40.526Z,-1.40
2023-02-05T02:20:12.899Z,-1.40
2023-02-05T02:22:55.038Z,-1.40
2023-02-05T02:28:01.210Z,-1.40
2023-02-05T02:30:40.864Z,-1.40
2023-02-05T02:33:16.697Z,-1.40
2023-02-05T02:36:05.473Z,-1.40
2023-02-05T02:38:34.161Z,-1.40
2023-02-05T02:41:15.205Z,-1.40
2023-02-05T02:43:55.998Z,-1.40
2023-02-05T02:46:42.824Z,-1.50
2023-02-05T02:49:44.273Z,-1.50
2023-02-05T02:52:16.550Z,-1.60
2023-02-05T02:54:47.314Z,-1.60
2023-02-05T02:57:17.311Z,-1.50
2023-02-05T02:59:47.607Z,-1.50
2023-02-05T03:04:59.344Z,-1.70
2023-02-05T03:07:37.682Z,-1.60
2023-02-05T03:10:26.916Z,-1.70
2023-02-05T03:12:56.431Z,-1.60
2023-02-05T03:17:53.447Z,-1.70
2023-02-05T03:20:27.185Z,-1.70
2023-02-05T03:22:55.466Z,-1.70
2023-02-05T03:25:23.369Z,-1.70
2023-02-05T03:27:53.116Z,-1.70
2023-02-05T03:33:06.388Z,-1.80
2023-02-05T03:35:47.800Z,-1.80
2023-02-05T03:38:30.701Z,-1.90
2023-02-05T03:41:45.250Z,-1.90
2023-02-05T03:44:26.494Z,-1.90
2023-02-05T03:47:06.019Z,-1.90
2023-02-05T03:52:13.684Z,-1.90
2023-02-05T03:54:51.748Z,-1.90
2023-02-05T04:36:46.172Z,-2.00
2023-02-05T05:01:21.950Z,-2.00
2023-02-05T05:03:49.851Z,-1.90
2023-02-05T05:06:18.085Z,-1.90
2023-02-05T05:11:15.489Z,-1.90
2023-02-05T05:21:08.854Z,-1.80
2023-02-05T05:26:06.131Z,-1.80
2023-02-05T05:31:08.539Z,-1.80
2023-02-05T05:46:15.723Z,-1.90
2023-02-05T06:40:18.182Z,-2.30
2023-02-05T07:14:41.317Z,-2.20
2023-02-05T07:17:09.118Z,-2.10
2023-02-05T07:19:36.550Z,-2.20
2023-02-05T07:36:51.216Z,-2.20
2023-02-05T07:44:13.451Z,-2.00
2023-02-05T07:54:09.977Z,-1.90
2023-02-05T08:18:50.264Z,-1.60
2023-02-05T08:31:12.594Z,-1.10
2023-02-05T08:36:07.630Z,-1.00
2023-02-05T08:41:12.474Z,-0.90
2023-02-05T08:43:44.591Z,-0.80
2023-02-05T08:46:13.961Z,-0.70
2023-02-05T08:51:11.125Z,-0.70
2023-02-05T09:01:06.297Z,-0.50
2023-02-05T09:06:01.411Z,-0.50
2023-02-05T09:18:20.754Z,-0.20
2023-02-05T09:20:49.795Z,-0.20
2023-02-05T09:23:18.349Z,-0.10
2023-02-05T09:30:44.825Z,0.00
2023-02-05T09:33:12.918Z,0.10
2023-02-05T09:40:57.202Z,0.20
2023-02-05T09:46:12.388Z,0.20
2023-02-05T09:51:10.176Z,0.20
2023-02-05T09:53:41.450Z,0.30
2023-02-05T09:56:10.086Z,0.30
2023-02-05T09:58:42.493Z,0.40
2023-02-05T10:01:23.397Z,0.50
2023-02-05T10:03:56.072Z,0.60
2023-02-05T10:06:41.773Z,0.70
2023-02-05T10:09:33.213Z,0.80
2023-02-05T10:12:04.100Z,1.00
2023-02-05T10:15:08.615Z,1.00
2023-02-05T10:18:03.285Z,1.00
2023-02-05T10:20:52.233Z,1.10
2023-02-05T10:23:54.367Z,1.00
2023-02-05T10:26:27.148Z,1.10
2023-02-05T10:29:08.956Z,1.10
2023-02-05T10:32:01.279Z,1.10
2023-02-05T10:34:54.105Z,1.20
2023-02-05T10:37:27.790Z,1.30
2023-02-05T10:39:58.011Z,1.40
2023-02-05T10:42:30.827Z,1.50
2023-02-05T10:45:05.470Z,1.50
2023-02-05T10:50:14.271Z,1.60
2023-02-05T10:55:13.184Z,1.60
2023-02-05T10:57:42.739Z,1.70
2023-02-05T11:00:21.366Z,1.70
2023-02-05T11:03:01.524Z,1.70
2023-02-05T11:05:38.258Z,1.70
2023-02-05T11:10:35.846Z,1.70
2023-02-05T11:13:25.974Z,1.80
2023-02-05T11:16:02.642Z,1.80
2023-02-05T11:18:45.764Z,1.80
2023-02-05T11:23:40.502Z,1.90
2023-02-05T11:26:27.675Z,2.00
2023-02-05T11:31:28.593Z,2.10
2023-02-05T11:34:07.616Z,2.10
2023-02-05T11:36:55.075Z,2.10
2023-02-05T11:39:42.874Z,2.10
2023-02-05T11:42:11.501Z,2.20
2023-02-05T11:44:53.882Z,2.20
2023-02-05T11:47:39.871Z,2.20
2023-02-05T11:50:23.287Z,2.30
2023-02-05T11:52:50.818Z,2.30
2023-02-05T11:55:44.246Z,2.30
2023-02-05T11:58:31.548Z,2.30
2023-02-05T12:01:07.067Z,2.30
2023-02-05T12:03:35.139Z,2.40
2023-02-05T12:06:31.046Z,2.40
2023-02-05T12:12:03.815Z,2.40
2023-02-05T12:14:46.438Z,2.30
2023-02-05T12:19:49.659Z,2.30
2023-02-05T12:22:25.524Z,2.40
2023-02-05T12:25:13.401Z,2.40
2023-02-05T12:27:49.556Z,2.40
2023-02-05T12:30:39.142Z,2.40
2023-02-05T12:33:19.396Z,2.40
2023-02-05T12:36:13.586Z,2.50
2023-02-05T12:39:03.208Z,2.40
2023-02-05T12:41:36.145Z,2.50
2023-02-05T12:44:38.112Z,2.50
2023-02-05T12:47:37.575Z,2.50
2023-02-05T12:52:50.046Z,2.50
2023-02-05T12:58:04.002Z,2.50
2023-02-05T13:03:07.275Z,2.50
2023-02-05T13:05:44.064Z,2.40
2023-02-05T13:11:03.633Z,2.50
2023-02-05T13:13:47.292Z,2.50
2023-02-05T13:16:17.873Z,2.50
2023-02-05T13:18:58.600Z,2.50
2023-02-05T13:24:57.427Z,2.50
2023-02-05T13:27:47.288Z,2.50
2023-02-05T13:32:50.104Z,2.60
2023-02-05T13:37:54.798Z,2.60
2023-02-05T13:40:27.567Z,2.60
2023-02-05T13:43:12.229Z,2.60
2023-02-05T13:46:06.428Z,2.60
2023-02-05T13:49:03.432Z,2.70
2023-02-05T13:51:53.325Z,2.70
2023-02-05T13:54:38.436Z,2.70
2023-02-05T13:59:39.961Z,2.70
2023-02-05T14:02:34.495Z,2.80
2023-02-05T14:05:03.069Z,2.70
2023-02-05T14:07:34.796Z,2.80
2023-02-05T14:10:02.762Z,2.70
2023-02-05T14:12:35.396Z,2.80
2023-02-05T14:15:20.202Z,2.80
2023-02-05T14:20:26.358Z,2.70
2023-02-05T14:23:04.018Z,2.80
2023-02-05T14:25:39.689Z,2.80
2023-02-05T14:28:15.877Z,2.80
2023-02-05T14:30:47.140Z,2.80
2023-02-05T14:33:45.043Z,2.80
2023-02-05T14:36:18.023Z,2.80
2023-02-05T14:38:51.112Z,2.80
2023-02-05T14:41:22.229Z,2.70
2023-02-05T14:44:03.898Z,2.70
2023-02-05T14:49:01.374Z,2.70
2023-02-05T14:54:18.140Z,2.70
2023-02-05T14:56:51.479Z,2.70
2023-02-05T14:59:31.853Z,2.70
2023-02-05T15:02:00.165Z,2.70
2023-02-05T15:04:50.381Z,2.70
2023-02-05T15:07:25.892Z,2.70
2023-02-05T15:10:01.008Z,2.60
2023-02-05T15:12:40.523Z,2.70
2023-02-05T15:15:33.314Z,2.70
2023-02-05T15:18:26.932Z,2.70
2023-02-05T15:20:56.393Z,2.70
2023-02-05T15:23:46.249Z,2.60
2023-02-05T15:26:30.246Z,2.70
2023-02-05T15:29:20.516Z,2.60
2023-02-05T15:31:52.056Z,2.60
2023-02-05T15:34:30.823Z,2.60
2023-02-05T15:37:09.763Z,2.60
2023-02-05T15:42:06.283Z,2.50
2023-02-05T15:44:35.385Z,2.50
2023-02-05T15:47:10.525Z,2.50
2023-02-05T15:49:44.767Z,2.40
2023-02-05T15:52:22.923Z,2.30
2023-02-05T15:54:51.047Z,2.40
2023-02-05T15:57:28.176Z,2.30
2023-02-05T15:59:57.203Z,2.30
2023-02-05T16:02:29.083Z,2.30
2023-02-05T16:05:01.489Z,2.20
2023-02-05T16:07:31.373Z,2.20
2023-02-05T16:10:00.738Z,2.20
2023-02-05T16:15:04.092Z,2.20
2023-02-05T16:17:48.300Z,2.20
2023-02-05T16:20:30.612Z,2.20
2023-02-05T16:23:04.271Z,2.10
2023-02-05T16:28:01.712Z,2.10
2023-02-05T16:30:43.893Z,2.10
2023-02-05T16:33:32.200Z,2.00
2023-02-05T16:36:02.475Z,2.00
2023-02-05T16:40:59.807Z,1.90
2023-02-05T16:43:39.215Z,1.80
2023-02-05T16:46:08.860Z,1.70
2023-02-05T16:48:49.181Z,1.70
2023-02-05T16:51:32.554Z,1.60
2023-02-05T16:54:09.998Z,1.60
2023-02-05T16:56:44.253Z,1.70
2023-02-05T16:59:19.296Z,1.70
2023-02-05T17:04:27.656Z,1.70
2023-02-05T17:06:59.390Z,1.70
2023-02-05T17:09:39.823Z,1.70
2023-02-05T17:12:21.925Z,1.70
2023-02-05T17:14:59.240Z,1.70
2023-02-05T17:17:27.727Z,1.70
2023-02-05T17:20:17.496Z,1.70
2023-02-05T17:23:05.327Z,1.70
2023-02-05T17:25:58.548Z,1.70
2023-02-05T17:28:27.409Z,1.70
2023-02-05T17:30:57.956Z,1.60
2023-02-05T17:33:28.335Z,1.60
2023-02-05T17:46:14.666Z,1.50
2023-02-05T17:51:21.236Z,1.40
2023-02-05T17:53:49.420Z,1.40
2023-02-05T18:18:32.542Z,0.80
2023-02-05T18:25:59.922Z,0.60
2023-02-05T18:28:28.490Z,0.60
2023-02-05T18:31:01.289Z,0.50
2023-02-05T18:36:04.920Z,0.40
2023-02-05T18:41:15.467Z,0.20
2023-02-05T18:43:43.958Z,0.30
2023-02-05T18:46:13.025Z,0.20
2023-02-05T18:48:49.176Z,0.20
2023-02-05T18:51:19.048Z,0.20
2023-02-05T18:53:47.508Z,0.10
2023-02-05T19:01:15.630Z,0.00
2023-02-05T19:03:43.928Z,-0.10
2023-02-05T19:06:13.826Z,0.00
2023-02-05T19:11:27.566Z,0.10
2023-02-05T19:13:56.900Z,0.10
2023-02-05T19:16:25.412Z,0.10
2023-02-05T19:21:21.395Z,0.10
2023-02-05T19:23:53.683Z,0.00
2023-02-05T19:26:23.575Z,-0.10
2023-02-05T19:28:57.322Z,-0.20
2023-02-05T19:31:27.085Z,-0.10
2023-02-05T19:33:55.618Z,-0.10
2023-02-05T19:41:20.559Z,-0.10
2023-02-05T19:43:53.204Z,-0.10
2023-02-05T19:46:23.204Z,-0.10
2023-02-05T19:53:45.747Z,0.10
2023-02-05T19:56:20.060Z,0.10
2023-02-05T19:58:48.940Z,0.00
2023-02-05T20:01:20.764Z,-0.10
2023-02-05T20:06:17.187Z,-0.10
2023-02-05T20:08:45.738Z,-0.10
2023-02-05T20:11:13.405Z,-0.10
2023-02-05T20:13:40.961Z,-0.10
2023-02-05T20:16:16.549Z,-0.20
2023-02-05T20:21:13.982Z,-0.30
2023-02-05T20:28:59.851Z,-0.50
2023-02-05T20:31:35.231Z,-0.60
2023-02-05T20:34:08.042Z,-0.60
2023-02-05T20:36:35.320Z,-0.60
2023-02-05T20:39:05.522Z,-0.70
2023-02-05T20:51:23.333Z,-0.80
2023-02-05T20:56:20.100Z,-0.70
2023-02-05T21:01:25.788Z,-0.60
2023-02-05T21:03:55.336Z,-0.50
2023-02-05T21:06:22.892Z,-0.50
2023-02-05T21:08:51.583Z,-0.50
2023-02-05T21:11:19.705Z,-0.50
2023-02-05T21:13:47.903Z,-0.50
2023-02-05T21:16:16.803Z,-0.50
2023-02-05T21:18:45.188Z,-0.40
2023-02-05T21:21:13.208Z,-0.40
2023-02-05T21:26:08.321Z,-0.50
2023-02-05T21:31:07.580Z,-0.50
2023-02-05T21:33:35.927Z,-0.50
2023-02-05T21:36:04.873Z,-0.50
2023-02-05T21:38:35.370Z,-0.50
2023-02-05T21:41:13.683Z,-0.50
2023-02-05T21:46:13.619Z,-0.60
2023-02-05T21:51:14.231Z,-0.50
2023-02-05T21:56:11.218Z,-0.60
2023-02-05T21:58:39.836Z,-0.60
2023-02-05T22:01:13.835Z,-0.70
2023-02-05T22:03:42.131Z,-0.70
2023-02-05T22:08:37.610Z,-0.70
2023-02-05T22:11:07.522Z,-0.70
2023-02-05T22:13:36.533Z,-0.60
2023-02-05T22:16:09.776Z,-0.70
2023-02-05T22:21:09.443Z,-0.80
2023-02-05T22:26:04.831Z,-0.80
2023-02-05T22:28:32.723Z,-0.80
2023-02-05T22:31:05.467Z,-0.90
2023-02-05T22:33:34.084Z,-0.90
2023-02-05T22:38:30.820Z,-0.90
2023-02-05T22:48:20.541Z,-0.90
2023-02-05T23:05:33.477Z,-1.00
2023-02-05T23:30:11.216Z,-1.20
2023-02-05T23:35:06.596Z,-1.30
